Time;durP1;ratioP1;P1;durP2;ratioP2;P2;SDS_P1;SDS_P2;PMS_P1;PMS_P2;Temp;Humidity;BMP_temperature;BMP_pressure;BME280_temperature;BME280_humidity;BME280_pressure;Samples;Min_cycle;Max_cycle;Signal;HPM_P1;HPM_P2
2022/03/05 00:01:25;;;;;;;9.20;4.60;;;5.50;43.30;;;;;;5012300;28;20571;-86
2022/03/05 00:03:51;;;;;;;8.80;4.33;;;5.30;43.40;;;;;;5004370;28;20022;-86
2022/03/05 00:06:16;;;;;;;7.47;4.23;;;5.30;43.50;;;;;;5010192;28;20292;-86
2022/03/05 00:08:42;;;;;;;9.63;4.80;;;5.20;43.60;;;;;;4994685;28;20037;-86
2022/03/05 00:11:08;;;;;;;7.70;4.20;;;5.20;43.70;;;;;;5005302;28;20032;-86
2022/03/05 00:13:36;;;;;;;11.00;4.60;;;5.10;44.00;;;;;;4986683;28;20240;-86
2022/03/05 00:16:02;;;;;;;7.73;4.30;;;5.10;44.80;;;;;;4995944;28;20361;-86
2022/03/05 00:18:28;;;;;;;7.28;4.28;;;5.00;44.20;;;;;;4994838;28;20030;-86
2022/03/05 00:20:53;;;;;;;9.93;4.68;;;5.00;44.20;;;;;;5018722;28;20050;-86
2022/03/05 00:23:20;;;;;;;8.87;4.87;;;5.00;44.10;;;;;;4988415;28;20026;-86
2022/03/05 00:25:46;;;;;;;9.40;4.72;;;4.90;44.30;;;;;;5002245;28;20033;-86
2022/03/05 00:28:12;;;;;;;9.70;4.65;;;4.90;45.10;;;;;;5005234;28;20091;-86
2022/03/05 00:30:38;;;;;;;9.05;4.60;;;4.80;44.40;;;;;;5015411;28;20334;-86
2022/03/05 00:33:04;;;;;;;12.02;4.60;;;4.80;44.60;;;;;;4995614;28;20048;-86
2022/03/05 00:35:30;;;;;;;8.83;4.60;;;4.70;45.00;;;;;;5006415;28;20147;-87
2022/03/05 00:37:56;;;;;;;9.68;4.40;;;4.70;45.10;;;;;;4988717;28;20030;-87
2022/03/05 00:40:21;;;;;;;8.15;4.53;;;4.70;45.10;;;;;;5005836;28;20087;-86
2022/03/05 00:42:47;;;;;;;8.93;4.70;;;4.60;45.00;;;;;;5008078;28;20063;-86
2022/03/05 00:45:13;;;;;;;8.57;4.28;;;4.60;45.00;;;;;;5001575;28;20030;-86
2022/03/05 00:47:39;;;;;;;8.47;3.87;;;4.60;45.40;;;;;;4993044;28;20251;-86
2022/03/05 00:50:07;;;;;;;9.93;4.38;;;4.50;45.30;;;;;;4985346;28;20097;-86
2022/03/05 00:52:33;;;;;;;8.48;4.22;;;4.50;45.60;;;;;;4985111;28;20061;-86
2022/03/05 00:54:58;;;;;;;9.27;4.35;;;4.40;45.70;;;;;;5019860;28;20140;-86
2022/03/05 00:57:24;;;;;;;9.03;4.30;;;4.40;45.70;;;;;;5003600;28;20593;-86
2022/03/05 00:59:50;;;;;;;7.97;4.05;;;4.30;45.80;;;;;;4991378;28;20487;-86
2022/03/05 01:02:16;;;;;;;8.07;3.97;;;4.30;45.80;;;;;;5017308;28;20128;-86
2022/03/05 01:04:41;;;;;;;7.72;4.22;;;4.30;45.80;;;;;;4996829;28;20033;-87
2022/03/05 01:07:07;;;;;;;6.50;3.70;;;4.30;46.00;;;;;;4999168;28;20437;-87
2022/03/05 01:09:33;;;;;;;7.85;4.03;;;4.20;46.10;;;;;;5009349;28;20146;-87
2022/03/05 01:11:58;;;;;;;8.33;4.30;;;4.20;46.20;;;;;;5017210;28;20202;-87
2022/03/05 01:14:24;;;;;;;8.32;4.10;;;4.10;46.20;;;;;;5014850;28;20494;-87
2022/03/05 01:16:50;;;;;;;8.30;3.93;;;4.10;46.00;;;;;;4990216;28;20045;-87
2022/03/05 01:19:15;;;;;;;10.10;4.57;;;4.00;46.00;;;;;;5017116;28;20065;-87
2022/03/05 01:21:41;;;;;;;8.10;4.00;;;4.00;46.30;;;;;;4986550;28;20460;-87
2022/03/05 01:24:06;;;;;;;8.60;4.23;;;4.00;46.40;;;;;;5003312;28;20073;-87
2022/03/05 01:26:32;;;;;;;8.93;4.20;;;3.90;46.40;;;;;;5017182;28;20029;-87
2022/03/05 01:28:58;;;;;;;7.97;4.10;;;3.90;46.70;;;;;;5032181;28;20041;-87
2022/03/05 01:31:23;;;;;;;9.15;4.35;;;3.90;46.70;;;;;;5008012;28;20048;-87
2022/03/05 01:33:49;;;;;;;7.13;4.33;;;3.80;46.80;;;;;;4999380;28;20113;-87
2022/03/05 01:36:15;;;;;;;9.90;4.70;;;3.80;46.80;;;;;;4986939;28;20033;-87
2022/03/05 01:38:41;;;;;;;7.53;3.95;;;3.80;47.20;;;;;;5017057;28;20158;-87
2022/03/05 01:41:06;;;;;;;8.67;3.83;;;3.70;47.10;;;;;;5007480;28;20079;-87
2022/03/05 01:43:32;;;;;;;6.80;3.83;;;3.70;47.10;;;;;;5015509;28;20465;-87
2022/03/05 01:45:58;;;;;;;7.87;4.00;;;3.60;47.10;;;;;;5009882;28;20271;-87
2022/03/05 01:48:24;;;;;;;7.70;4.03;;;3.60;47.20;;;;;;4995421;28;20113;-87
2022/03/05 01:50:50;;;;;;;7.53;3.95;;;3.60;47.10;;;;;;5018341;28;20164;-87
2022/03/05 01:53:16;;;;;;;8.43;4.30;;;3.60;47.40;;;;;;4991820;28;20122;-87
2022/03/05 01:55:43;;;;;;;9.75;3.97;;;3.50;47.50;;;;;;4990774;28;20389;-87
2022/03/05 01:58:09;;;;;;;6.90;3.50;;;3.50;47.50;;;;;;5016779;28;20021;-87
2022/03/05 02:00:35;;;;;;;6.57;3.73;;;3.50;47.50;;;;;;4994171;28;20033;-87
2022/03/05 02:03:00;;;;;;;6.90;3.85;;;3.40;47.50;;;;;;5010360;28;20474;-87
2022/03/05 02:05:26;;;;;;;8.43;4.40;;;3.40;47.60;;;;;;5004866;28;20108;-87
2022/03/05 02:07:52;;;;;;;6.80;3.67;;;3.30;47.70;;;;;;5004086;28;20068;-88
2022/03/05 02:10:17;;;;;;;6.72;3.60;;;3.30;47.70;;;;;;4992888;28;20026;-87
2022/03/05 02:12:44;;;;;;;8.73;4.20;;;3.30;47.90;;;;;;5009225;28;20280;-87
2022/03/05 02:15:10;;;;;;;7.88;3.80;;;3.20;47.80;;;;;;4997935;28;20407;-87
2022/03/05 02:17:37;;;;;;;8.95;3.95;;;3.20;47.90;;;;;;5006296;28;20096;-87
2022/03/05 02:20:05;;;;;;;8.73;4.20;;;3.20;48.10;;;;;;5001977;28;20025;-87
2022/03/05 02:22:31;;;;;;;8.50;4.03;;;3.20;48.20;;;;;;4982637;28;20038;-87
2022/03/05 02:25:03;;;;;;;7.80;3.65;;;3.10;48.10;;;;;;5001326;28;20039;-87
2022/03/05 02:27:29;;;;;;;7.15;3.80;;;3.10;48.10;;;;;;4997900;28;20045;-87
2022/03/05 02:29:55;;;;;;;8.10;3.90;;;3.10;48.20;;;;;;4997143;28;20406;-87
2022/03/05 02:32:22;;;;;;;8.33;3.77;;;3.00;48.00;;;;;;5008685;28;20021;-87
2022/03/05 02:34:48;;;;;;;7.00;3.67;;;3.00;48.10;;;;;;5009240;28;20225;-87
2022/03/05 02:37:16;;;;;;;8.65;4.10;;;3.00;48.20;;;;;;5007937;28;20401;-87
2022/03/05 02:39:46;;;;;;;7.93;3.90;;;2.90;48.50;;;;;;5001705;28;20036;-87
2022/03/05 02:42:13;;;;;;;7.82;4.05;;;2.90;48.80;;;;;;4986478;28;20045;-87
2022/03/05 02:44:39;;;;;;;8.13;4.33;;;2.90;48.60;;;;;;4999527;28;20306;-87
2022/03/05 02:47:05;;;;;;;7.60;4.03;;;2.90;48.60;;;;;;5001192;28;20036;-87
2022/03/05 02:49:31;;;;;;;7.75;3.92;;;2.80;48.60;;;;;;4986231;28;20037;-87
2022/03/05 02:51:58;;;;;;;8.00;3.47;;;2.80;48.80;;;;;;5009435;28;20076;-87
2022/03/05 02:54:23;;;;;;;8.15;3.95;;;2.80;48.90;;;;;;4998768;28;20037;-87
2022/03/05 02:56:49;;;;;;;7.57;3.63;;;2.80;49.10;;;;;;5000993;28;20390;-88
2022/03/05 02:59:15;;;;;;;9.57;4.00;;;2.70;48.90;;;;;;4989767;28;20577;-87
2022/03/05 03:01:40;;;;;;;8.85;3.97;;;2.70;49.10;;;;;;5015813;28;20242;-87
2022/03/05 03:04:06;;;;;;;6.23;3.43;;;2.70;49.20;;;;;;5018082;28;20371;-87
2022/03/05 03:06:32;;;;;;;7.20;3.80;;;2.70;49.20;;;;;;4981216;28;20286;-87
2022/03/05 03:08:57;;;;;;;8.13;3.83;;;2.70;49.30;;;;;;5001856;28;20284;-87
2022/03/05 03:11:23;;;;;;;8.55;3.63;;;2.60;49.10;;;;;;5007558;28;20478;-87
2022/03/05 03:13:49;;;;;;;7.87;3.80;;;2.60;49.10;;;;;;4987090;28;20079;-87
2022/03/05 03:16:15;;;;;;;7.50;3.92;;;2.60;49.30;;;;;;4992559;28;20040;-87
2022/03/05 03:18:41;;;;;;;7.07;3.70;;;2.60;49.40;;;;;;4996517;28;20026;-87
2022/03/05 03:21:07;;;;;;;10.00;3.87;;;2.60;49.40;;;;;;5008615;28;20079;-87
2022/03/05 03:23:33;;;;;;;8.00;4.00;;;2.50;49.40;;;;;;5011253;28;20338;-87
2022/03/05 03:25:58;;;;;;;8.00;4.07;;;2.50;49.40;;;;;;4981491;28;20057;-87
2022/03/05 03:28:24;;;;;;;7.25;3.55;;;2.50;49.60;;;;;;4992305;28;20050;-87
2022/03/05 03:30:50;;;;;;;8.27;3.73;;;2.40;49.50;;;;;;4992105;28;20466;-87
2022/03/05 03:33:16;;;;;;;7.63;3.95;;;2.40;49.60;;;;;;5014591;28;20393;-87
2022/03/05 03:35:41;;;;;;;9.33;4.40;;;2.40;49.80;;;;;;5003154;28;20034;-87
2022/03/05 03:38:07;;;;;;;8.02;3.67;;;2.40;49.60;;;;;;4999773;28;20018;-87
2022/03/05 03:40:33;;;;;;;7.93;3.63;;;2.30;49.80;;;;;;4978384;28;20029;-87
2022/03/05 03:42:59;;;;;;;7.83;3.57;;;2.30;49.80;;;;;;5018357;28;20022;-87
2022/03/05 03:45:25;;;;;;;13.15;4.03;;;2.30;49.90;;;;;;5005404;28;20533;-87
2022/03/05 03:47:52;;;;;;;7.47;3.72;;;2.30;50.00;;;;;;5003542;28;20053;-87
2022/03/05 03:50:20;;;;;;;8.50;3.77;;;2.30;50.10;;;;;;5013408;28;20257;-87
2022/03/05 03:52:46;;;;;;;7.78;3.70;;;2.20;50.10;;;;;;4987060;28;20025;-87
2022/03/05 03:55:15;;;;;;;7.22;3.85;;;2.20;50.00;;;;;;4999902;28;20021;-87
2022/03/05 03:57:41;;;;;;;8.95;3.67;;;2.20;50.00;;;;;;4986870;28;20025;-87
2022/03/05 04:00:09;;;;;;;7.20;3.70;;;2.10;50.00;;;;;;5010899;28;20037;-87
2022/03/05 04:02:35;;;;;;;8.30;3.75;;;2.10;50.20;;;;;;4998124;28;20036;-87
2022/03/05 04:05:01;;;;;;;7.65;3.40;;;2.10;50.10;;;;;;5021568;28;20025;-87
2022/03/05 04:10:10;;;;;;;6.38;3.30;;;2.00;50.20;;;;;;5016834;28;20316;-87
2022/03/05 04:12:36;;;;;;;7.33;3.57;;;2.00;50.20;;;;;;4983432;28;20401;-87
2022/03/05 04:15:06;;;;;;;6.38;3.13;;;1.90;50.20;;;;;;5001817;28;20017;-87
2022/03/05 04:17:32;;;;;;;6.80;3.47;;;1.90;50.60;;;;;;5005256;28;20772;-87
2022/03/05 04:19:58;;;;;;;8.43;3.67;;;1.90;50.40;;;;;;5000201;28;20056;-87
2022/03/05 04:22:24;;;;;;;7.40;4.00;;;1.90;50.50;;;;;;5008389;28;20037;-87
2022/03/05 04:24:49;;;;;;;8.35;3.40;;;1.80;50.60;;;;;;4999517;28;20091;-87
2022/03/05 04:27:15;;;;;;;6.60;3.40;;;1.80;50.60;;;;;;5009174;28;20073;-87
2022/03/05 04:29:41;;;;;;;9.10;4.00;;;1.80;50.70;;;;;;4991061;28;20029;-87
2022/03/05 04:32:07;;;;;;;7.23;3.53;;;1.80;50.80;;;;;;4991176;28;20065;-87
2022/03/05 04:34:34;;;;;;;7.30;3.60;;;1.70;50.80;;;;;;5002828;28;20254;-87
2022/03/05 04:37:00;;;;;;;8.63;3.63;;;1.70;50.70;;;;;;4997025;28;20169;-87
2022/03/05 04:39:25;;;;;;;8.10;3.47;;;1.70;50.80;;;;;;4987138;28;20052;-87
2022/03/05 04:41:51;;;;;;;7.33;3.57;;;1.70;50.80;;;;;;4999621;28;20272;-87
2022/03/05 04:44:17;;;;;;;6.17;3.10;;;1.60;50.90;;;;;;4982691;28;20136;-87
2022/03/05 04:46:42;;;;;;;6.95;3.10;;;1.60;50.80;;;;;;5001830;28;20081;-87
2022/03/05 04:49:09;;;;;;;7.90;3.60;;;1.60;50.90;;;;;;5018826;28;20389;-87
2022/03/05 04:51:35;;;;;;;6.27;3.47;;;1.60;51.10;;;;;;5013031;28;20307;-87
2022/03/05 04:54:01;;;;;;;7.30;3.28;;;1.50;51.10;;;;;;5010607;28;20025;-87
2022/03/05 04:56:26;;;;;;;6.93;3.60;;;1.50;51.00;;;;;;5015234;28;20053;-87
2022/03/05 04:58:52;;;;;;;8.82;3.70;;;1.50;51.10;;;;;;5019081;28;20037;-87
2022/03/05 05:01:18;;;;;;;8.50;3.73;;;1.50;51.30;;;;;;4981774;28;20026;-87
2022/03/05 05:03:44;;;;;;;7.43;3.50;;;1.40;51.30;;;;;;5007727;28;20529;-87
2022/03/05 05:06:11;;;;;;;9.07;3.72;;;1.40;51.40;;;;;;5016492;28;20067;-87
2022/03/05 05:08:38;;;;;;;7.68;3.25;;;1.40;51.30;;;;;;4991160;28;20629;-87
2022/03/05 05:11:03;;;;;;;8.50;3.60;;;1.40;51.40;;;;;;5010321;28;20026;-87
2022/03/05 05:13:29;;;;;;;6.50;3.17;;;1.30;51.30;;;;;;5014482;28;20221;-87
2022/03/05 05:15:56;;;;;;;7.30;3.15;;;1.30;51.40;;;;;;4993353;28;20034;-87
2022/03/05 05:18:22;;;;;;;6.53;3.10;;;1.30;52.00;;;;;;5009321;28;20544;-87
2022/03/05 05:20:47;;;;;;;8.00;3.50;;;1.30;51.40;;;;;;4991790;28;20025;-87
2022/03/05 05:23:13;;;;;;;7.13;3.35;;;1.20;51.40;;;;;;4992490;28;20021;-87
2022/03/05 05:25:39;;;;;;;8.10;3.30;;;1.20;51.50;;;;;;5009698;28;20042;-87
2022/03/05 05:28:04;;;;;;;6.25;3.42;;;1.20;51.70;;;;;;5017911;28;20077;-87
2022/03/05 05:30:30;;;;;;;7.43;2.97;;;1.20;51.70;;;;;;4974089;28;20242;-87
2022/03/05 05:32:56;;;;;;;7.38;3.13;;;1.10;51.80;;;;;;5016395;28;20024;-87
2022/03/05 05:35:21;;;;;;;6.70;3.20;;;1.10;51.80;;;;;;4989637;28;20025;-87
2022/03/05 05:37:47;;;;;;;6.90;3.00;;;1.10;51.90;;;;;;5018118;28;20026;-87
2022/03/05 05:40:13;;;;;;;7.13;3.30;;;1.10;51.90;;;;;;4990488;28;20276;-87
2022/03/05 05:42:38;;;;;;;5.90;3.23;;;1.10;52.50;;;;;;5013796;28;20021;-87
2022/03/05 05:45:05;;;;;;;9.43;3.25;;;1.10;51.80;;;;;;4999613;28;20026;-87
2022/03/05 05:47:31;;;;;;;7.00;3.05;;;1.10;51.90;;;;;;5001247;28;20277;-87
2022/03/05 05:49:56;;;;;;;6.97;3.17;;;1.00;51.90;;;;;;5003793;28;20109;-87
2022/03/05 05:52:22;;;;;;;7.07;3.10;;;1.00;52.00;;;;;;4997495;28;20056;-87
2022/03/05 05:54:48;;;;;;;7.87;3.30;;;1.00;52.20;;;;;;5017447;28;20033;-87
2022/03/05 05:57:13;;;;;;;5.70;2.92;;;1.00;51.90;;;;;;5001957;28;20114;-87
2022/03/05 05:59:39;;;;;;;7.53;2.90;;;1.00;52.00;;;;;;5008994;28;20351;-87
2022/03/05 06:02:04;;;;;;;6.93;3.20;;;0.90;52.20;;;;;;4993591;28;20108;-88
2022/03/05 06:04:30;;;;;;;7.13;3.00;;;0.90;52.40;;;;;;5011487;28;20455;-87
2022/03/05 06:06:56;;;;;;;6.53;2.97;;;0.90;52.40;;;;;;4979282;28;20044;-87
2022/03/05 06:09:21;;;;;;;6.30;2.92;;;0.90;52.00;;;;;;4995288;28;20025;-87
2022/03/05 06:11:47;;;;;;;6.43;3.23;;;0.80;52.10;;;;;;4987607;28;20017;-87
2022/03/05 06:14:13;;;;;;;6.95;3.20;;;0.80;52.40;;;;;;4993571;28;20246;-87
2022/03/05 06:16:38;;;;;;;6.27;3.10;;;0.80;52.50;;;;;;5001465;28;20084;-87
2022/03/05 06:19:04;;;;;;;6.32;2.83;;;0.80;52.40;;;;;;4996714;28;20123;-87
2022/03/05 06:21:30;;;;;;;6.37;3.13;;;0.80;52.60;;;;;;4997593;28;20116;-87
2022/03/05 06:23:55;;;;;;;7.25;3.55;;;0.80;52.60;;;;;;4984646;28;20029;-88
2022/03/05 06:26:21;;;;;;;5.60;3.03;;;0.80;52.70;;;;;;4990901;28;20092;-88
2022/03/05 06:28:47;;;;;;;6.60;2.78;;;0.80;52.70;;;;;;5012089;28;20054;-87
2022/03/05 06:31:12;;;;;;;6.80;2.93;;;0.80;52.70;;;;;;4980790;28;20040;-88
2022/03/05 06:33:38;;;;;;;7.27;3.47;;;0.70;52.80;;;;;;5005982;28;20022;-87
2022/03/05 06:36:04;;;;;;;6.45;3.13;;;0.70;52.80;;;;;;4988390;28;20128;-87
2022/03/05 06:38:30;;;;;;;7.85;3.28;;;0.70;52.70;;;;;;4976203;28;20025;-87
2022/03/05 06:40:56;;;;;;;6.73;2.90;;;0.70;52.80;;;;;;4993364;28;20068;-87
2022/03/05 06:43:21;;;;;;;6.70;2.90;;;0.70;52.90;;;;;;4998091;28;20521;-87
2022/03/05 06:45:47;;;;;;;7.53;3.17;;;0.70;53.10;;;;;;4988920;28;20025;-87
2022/03/05 06:48:13;;;;;;;5.78;2.88;;;0.70;53.20;;;;;;4970367;28;20124;-87
2022/03/05 06:50:39;;;;;;;6.45;3.00;;;0.80;53.10;;;;;;4984826;28;20025;-87
2022/03/05 06:53:05;;;;;;;6.47;2.67;;;0.80;53.10;;;;;;4997534;28;20356;-88
2022/03/05 06:55:31;;;;;;;6.88;3.03;;;0.80;53.20;;;;;;4992633;28;20013;-87
2022/03/05 06:57:56;;;;;;;7.95;3.33;;;0.80;53.40;;;;;;4990018;28;20296;-87
2022/03/05 07:00:22;;;;;;;7.63;3.50;;;0.90;53.60;;;;;;5000689;28;20487;-87
2022/03/05 07:02:48;;;;;;;7.28;3.38;;;0.90;54.40;;;;;;4985404;28;20593;-88
2022/03/05 07:05:14;;;;;;;6.60;3.42;;;0.90;53.80;;;;;;4987553;28;20025;-87
2022/03/05 07:07:40;;;;;;;6.83;3.27;;;1.10;54.00;;;;;;5000879;28;20406;-88
2022/03/05 07:10:06;;;;;;;6.55;3.30;;;1.10;54.10;;;;;;4969610;28;20452;-88
2022/03/05 07:12:33;;;;;;;7.30;3.30;;;1.20;53.90;;;;;;4990380;28;20037;-88
2022/03/05 07:14:59;;;;;;;6.93;3.47;;;1.30;54.30;;;;;;4986931;28;20634;-87
2022/03/05 07:17:25;;;;;;;9.67;4.37;;;1.50;54.70;;;;;;5005388;28;20029;-87
2022/03/05 07:19:51;;;;;;;8.55;3.75;;;1.60;55.00;;;;;;4970528;28;20224;-88
2022/03/05 07:22:18;;;;;;;8.98;3.58;;;1.80;55.40;;;;;;4992358;28;20474;-88
2022/03/05 07:24:44;;;;;;;7.28;3.72;;;2.00;55.50;;;;;;4983494;28;20050;-87
2022/03/05 07:27:10;;;;;;;8.17;3.80;;;2.30;55.70;;;;;;4991171;28;20091;-87
2022/03/05 07:29:36;;;;;;;9.07;4.35;;;2.60;56.00;;;;;;5004778;28;20113;-88
2022/03/05 07:32:05;;;;;;;9.77;4.33;;;2.80;55.30;;;;;;5008355;28;20360;-87
2022/03/05 07:34:31;;;;;;;8.45;3.78;;;3.10;55.70;;;;;;5012895;28;20057;-87
2022/03/05 07:36:57;;;;;;;8.48;4.00;;;3.40;55.90;;;;;;4986767;28;20116;-88
2022/03/05 07:39:23;;;;;;;8.57;4.30;;;3.70;55.90;;;;;;5017046;28;20083;-88
2022/03/05 07:41:49;;;;;;;10.75;4.20;;;4.10;56.20;;;;;;4983522;28;20033;-88
2022/03/05 07:44:15;;;;;;;7.33;3.93;;;4.40;56.60;;;;;;4996795;28;20084;-87
2022/03/05 07:46:40;;;;;;;7.77;3.90;;;4.80;56.80;;;;;;5003265;28;20041;-88
2022/03/05 07:49:06;;;;;;;8.10;3.97;;;5.20;56.60;;;;;;4973299;28;20029;-88
2022/03/05 07:51:33;;;;;;;7.60;4.00;;;5.60;56.60;;;;;;4983265;28;20025;-87
2022/03/05 07:53:59;;;;;;;9.00;4.13;;;6.00;56.70;;;;;;5014603;28;20249;-87
2022/03/05 07:56:24;;;;;;;6.38;3.80;;;6.40;56.70;;;;;;5004240;28;20072;-87
2022/03/05 07:58:50;;;;;;;8.23;4.10;;;6.80;56.70;;;;;;5003844;28;20041;-87
2022/03/05 08:01:16;;;;;;;7.57;4.30;;;7.30;56.90;;;;;;5001425;28;20033;-87
2022/03/05 08:03:41;;;;;;;8.17;4.43;;;7.80;56.90;;;;;;5000427;28;20040;-87
2022/03/05 08:06:07;;;;;;;7.63;4.00;;;8.30;56.80;;;;;;5012699;28;20040;-87
2022/03/05 08:08:32;;;;;;;7.80;3.97;;;8.80;56.70;;;;;;4986366;28;20035;-87
2022/03/05 08:10:59;;;;;;;7.90;4.57;;;9.30;56.50;;;;;;5013408;28;20361;-87
2022/03/05 08:13:24;;;;;;;8.13;4.60;;;9.80;56.10;;;;;;4999252;28;20156;-86
2022/03/05 08:15:51;;;;;;;9.43;4.80;;;10.20;55.60;;;;;;4987432;28;20054;-86
2022/03/05 08:18:16;;;;;;;7.53;4.93;;;10.60;55.10;;;;;;4995853;28;20072;-86
2022/03/05 08:20:42;;;;;;;8.87;4.97;;;11.10;55.10;;;;;;5006280;28;20641;-87
2022/03/05 08:23:08;;;;;;;9.18;5.28;;;11.50;54.90;;;;;;4983166;28;20221;-87
2022/03/05 08:25:33;;;;;;;9.10;4.70;;;11.90;54.70;;;;;;5005963;28;20436;-87
2022/03/05 08:27:59;;;;;;;12.10;5.13;;;12.30;54.40;;;;;;5006699;28;20658;-83
2022/03/05 08:30:25;;;;;;;9.90;5.27;;;12.70;54.00;;;;;;5010909;28;20549;-83
2022/03/05 08:32:51;;;;;;;8.93;4.95;;;13.00;53.60;;;;;;5016583;28;20057;-83
2022/03/05 08:35:18;;;;;;;9.93;6.03;;;13.30;53.40;;;;;;4982269;28;20104;-82
2022/03/05 08:37:44;;;;;;;10.63;5.78;;;13.70;53.00;;;;;;4995272;28;20044;-83
2022/03/05 08:40:12;;;;;;;10.90;6.18;;;14.00;52.20;;;;;;5014612;28;20787;-83
2022/03/05 08:42:38;;;;;;;10.80;6.18;;;14.30;51.90;;;;;;4983981;28;20090;-83
2022/03/05 08:45:06;;;;;;;10.73;6.18;;;14.60;52.10;;;;;;5015936;28;20559;-82
2022/03/05 08:47:32;;;;;;;11.60;6.33;;;14.80;50.80;;;;;;5013891;28;20292;-85
2022/03/05 08:49:57;;;;;;;10.95;6.10;;;15.00;50.60;;;;;;5018180;28;20519;-88
2022/03/05 08:52:23;;;;;;;9.98;6.40;;;15.20;50.50;;;;;;5011817;28;20037;-88
2022/03/05 08:54:49;;;;;;;11.50;6.60;;;15.40;50.10;;;;;;4990455;28;20033;-89
2022/03/05 08:57:14;;;;;;;10.48;6.50;;;15.60;49.90;;;;;;4994151;28;20258;-89
2022/03/05 08:59:40;;;;;;;11.30;6.97;;;15.90;49.60;;;;;;5017519;28;20398;-89
2022/03/05 09:02:06;;;;;;;12.68;6.93;;;16.00;49.40;;;;;;4987821;28;20151;-89
2022/03/05 09:04:33;;;;;;;12.30;7.30;;;16.30;49.30;;;;;;5017754;28;20495;-88
2022/03/05 09:06:59;;;;;;;13.02;7.70;;;16.50;48.90;;;;;;5014986;28;20071;-89
2022/03/05 09:09:25;;;;;;;12.37;7.43;;;16.80;48.30;;;;;;4972372;28;20189;-86
2022/03/05 09:11:51;;;;;;;13.43;7.75;;;17.00;48.10;;;;;;5013695;28;20029;-86
2022/03/05 09:14:16;;;;;;;12.37;7.00;;;17.20;47.90;;;;;;5012784;28;20026;-86
2022/03/05 09:16:42;;;;;;;11.85;7.65;;;17.50;47.90;;;;;;5007235;28;20033;-86
2022/03/05 09:19:09;;;;;;;12.07;7.47;;;17.70;47.80;;;;;;5013800;28;20048;-86
2022/03/05 09:21:35;;;;;;;13.27;7.80;;;17.90;47.40;;;;;;4996929;28;20334;-86
2022/03/05 09:24:02;;;;;;;14.30;8.50;;;18.20;46.30;;;;;;4993437;28;20033;-86
2022/03/05 09:26:28;;;;;;;13.75;7.90;;;18.30;46.40;;;;;;4995202;28;20602;-86
2022/03/05 09:28:53;;;;;;;12.60;8.13;;;18.50;45.40;;;;;;5000147;28;20050;-86
2022/03/05 09:31:19;;;;;;;12.65;7.72;;;18.70;45.20;;;;;;5009208;28;20029;-88
2022/03/05 09:33:45;;;;;;;11.23;7.57;;;18.80;45.00;;;;;;4999357;28;20218;-88
2022/03/05 09:36:11;;;;;;;13.20;7.73;;;19.00;44.80;;;;;;5012528;28;20018;-89
2022/03/05 09:38:37;;;;;;;12.60;7.88;;;19.10;44.30;;;;;;4995385;28;20030;-89
2022/03/05 09:41:04;;;;;;;14.07;7.82;;;19.20;43.90;;;;;;4996611;28;20037;-89
2022/03/05 09:43:30;;;;;;;11.37;7.40;;;19.30;43.90;;;;;;4997810;28;21230;-89
2022/03/05 09:45:58;;;;;;;12.57;7.68;;;19.50;44.20;;;;;;5011785;28;20272;-89
2022/03/05 09:48:26;;;;;;;12.18;7.45;;;19.80;44.20;;;;;;5009251;28;20254;-89
2022/03/05 09:50:51;;;;;;;11.48;7.68;;;20.10;44.00;;;;;;4997213;28;20034;-89
2022/03/05 09:53:18;;;;;;;12.73;7.63;;;20.30;43.40;;;;;;4989498;28;20249;-89
2022/03/05 09:55:44;;;;;;;11.98;7.25;;;20.60;42.60;;;;;;4998442;28;20044;-89
2022/03/05 09:58:10;;;;;;;12.20;7.70;;;20.80;42.10;;;;;;4979307;28;20052;-89
2022/03/05 10:00:38;;;;;;;10.63;7.60;;;20.90;41.80;;;;;;5015765;28;20033;-88
2022/03/05 10:03:07;;;;;;;10.48;7.07;;;21.00;41.10;;;;;;4986825;28;20551;-89
2022/03/05 10:05:34;;;;;;;10.68;7.40;;;21.20;40.80;;;;;;4997817;28;20026;-89
2022/03/05 10:08:15;;;;;;;11.40;7.32;;;21.30;40.90;;;;;;4985888;28;20543;-89
2022/03/05 10:10:52;;;;;;;12.23;7.57;;;21.30;40.30;;;;;;5000725;28;20037;-89
2022/03/05 10:13:20;;;;;;;10.95;7.18;;;21.40;39.00;;;;;;4965469;28;20032;-89
2022/03/05 10:15:47;;;;;;;11.88;7.97;;;21.50;39.80;;;;;;5009400;28;20038;-89
2022/03/05 10:18:12;;;;;;;12.30;8.45;;;21.60;39.80;;;;;;4991604;28;20162;-89
2022/03/05 10:20:59;;;;;;;11.33;7.47;;;21.70;39.70;;;;;;4990947;28;20022;-89
2022/03/05 10:23:25;;;;;;;11.98;8.25;;;22.00;38.20;;;;;;4986377;28;20445;-89
2022/03/05 10:25:55;;;;;;;11.93;8.32;;;22.10;39.60;;;;;;4992286;28;20060;-89
2022/03/05 10:28:28;;;;;;;10.82;7.57;;;22.30;38.80;;;;;;4986109;28;20131;-89
2022/03/05 10:31:07;;;;;;;11.52;8.50;;;22.60;37.70;;;;;;5011770;28;20248;-89
2022/03/05 10:33:34;;;;;;;13.00;7.97;;;22.70;38.00;;;;;;5006029;28;20080;-90
2022/03/05 10:36:07;;;;;;;12.68;8.18;;;22.90;37.80;;;;;;4990168;28;20694;-90
2022/03/05 10:38:51;;;;;;;13.48;8.52;;;23.00;37.20;;;;;;5032320;28;20029;-90
2022/03/05 10:41:41;;;;;;;11.90;8.32;;;23.20;35.70;;;;;;5016322;28;20029;-90
2022/03/05 10:44:11;;;;;;;11.88;8.18;;;23.40;35.70;;;;;;4993532;28;20600;-89
2022/03/05 10:46:43;;;;;;;13.33;8.73;;;23.60;36.80;;;;;;4994174;28;20026;-89
2022/03/05 10:49:24;;;;;;;11.45;8.13;;;23.70;35.50;;;;;;4998124;28;20033;-89
2022/03/05 10:51:52;;;;;;;11.38;8.38;;;23.90;35.30;;;;;;4992578;28;20045;-89
2022/03/05 10:54:34;;;;;;;10.55;8.05;;;24.00;35.30;;;;;;5008377;28;20559;-89
2022/03/05 10:57:13;;;;;;;10.82;8.00;;;24.10;34.90;;;;;;4993334;28;20239;-87
2022/03/05 10:59:41;;;;;;;12.40;7.90;;;24.20;33.90;;;;;;4981351;28;20036;-87
2022/03/05 11:02:08;;;;;;;13.07;8.63;;;24.30;35.00;;;;;;5002439;28;20617;-87
2022/03/05 11:04:39;;;;;;;11.13;8.00;;;24.50;34.70;;;;;;4996463;28;20029;-87
2022/03/05 11:07:06;;;;;;;12.20;8.60;;;24.50;34.40;;;;;;5011336;28;20222;-87
2022/03/05 11:09:34;;;;;;;11.63;8.45;;;24.60;34.60;;;;;;5008877;28;20030;-87
2022/03/05 11:12:00;;;;;;;11.60;8.30;;;24.70;34.60;;;;;;4999912;28;20246;-87
2022/03/05 11:14:27;;;;;;;12.00;8.43;;;25.00;34.50;;;;;;4985298;28;20034;-87
2022/03/05 11:16:54;;;;;;;11.43;8.75;;;25.10;33.80;;;;;;5015594;28;20472;-87
2022/03/05 11:19:22;;;;;;;12.15;8.48;;;25.30;33.50;;;;;;4996842;28;20052;-87
2022/03/05 11:21:48;;;;;;;9.95;7.53;;;25.50;33.80;;;;;;4995979;28;20030;-87
2022/03/05 11:24:16;;;;;;;11.27;7.80;;;25.60;33.00;;;;;;5005811;28;20029;-87
2022/03/05 11:26:42;;;;;;;11.23;8.25;;;25.70;32.70;;;;;;4999717;28;20083;-87
2022/03/05 11:29:08;;;;;;;12.10;8.30;;;25.80;33.00;;;;;;4986307;28;20242;-87
2022/03/05 11:31:35;;;;;;;11.17;8.07;;;25.90;33.00;;;;;;4977345;28;20596;-87
2022/03/05 11:34:11;;;;;;;11.82;8.90;;;26.10;32.70;;;;;;4993545;28;20025;-86
2022/03/05 11:36:38;;;;;;;11.43;8.15;;;26.40;30.30;;;;;;4987800;28;20035;-87
2022/03/05 11:39:19;;;;;;;10.68;8.43;;;26.40;31.90;;;;;;4998738;28;20320;-86
2022/03/05 11:42:08;;;;;;;11.67;8.20;;;26.60;30.20;;;;;;5014150;28;20233;-87
2022/03/05 11:44:40;;;;;;;11.85;8.35;;;26.70;29.40;;;;;;5003299;28;20026;-90
2022/03/05 11:47:18;;;;;;;12.80;8.85;;;26.70;30.20;;;;;;5016955;28;20079;-87
2022/03/05 11:49:59;;;;;;;12.77;8.40;;;26.70;29.70;;;;;;4994605;28;20037;-87
2022/03/05 11:52:40;;;;;;;10.13;8.05;;;26.80;29.40;;;;;;5003234;28;20030;-86
2022/03/05 11:55:12;;;;;;;10.17;7.33;;;26.90;29.80;;;;;;4993282;28;20287;-87
2022/03/05 11:57:39;;;;;;;12.98;8.63;;;26.80;29.00;;;;;;4993240;28;20064;-86
2022/03/05 12:00:05;;;;;;;12.05;8.27;;;26.70;29.80;;;;;;4970543;28;20026;-87
2022/03/05 12:02:39;;;;;;;11.35;8.20;;;26.70;30.00;;;;;;5010870;28;20107;-86
2022/03/05 12:05:05;;;;;;;12.23;8.48;;;26.70;30.00;;;;;;5013642;28;20363;-87
2022/03/05 12:07:40;;;;;;;10.83;7.77;;;26.80;30.10;;;;;;4990064;28;20040;-87
2022/03/05 12:10:14;;;;;;;10.48;7.80;;;26.90;29.80;;;;;;5017218;28;20493;-87
2022/03/05 12:13:04;;;;;;;11.68;8.45;;;27.20;29.70;;;;;;4993088;28;20038;-86
2022/03/05 12:15:35;;;;;;;10.60;8.35;;;27.40;29.00;;;;;;5000117;28;20116;-87
2022/03/05 12:18:03;;;;;;;12.90;8.85;;;27.60;29.50;;;;;;4977005;28;20464;-87
2022/03/05 12:20:33;;;;;;;14.13;8.60;;;27.60;29.40;;;;;;4999097;28;20084;-87
2022/03/05 12:23:04;;;;;;;11.30;8.80;;;27.70;29.20;;;;;;4985684;28;20489;-87
2022/03/05 12:25:41;;;;;;;13.45;9.15;;;27.80;29.00;;;;;;5007632;28;20489;-87
2022/03/05 12:28:24;;;;;;;12.13;9.00;;;27.90;28.30;;;;;;4997816;28;20041;-87
2022/03/05 12:30:52;;;;;;;11.98;8.98;;;28.00;28.30;;;;;;4998229;28;20057;-87
2022/03/05 12:33:18;;;;;;;11.87;9.13;;;28.10;28.60;;;;;;5006164;28;20052;-86
2022/03/05 12:35:47;;;;;;;13.25;9.90;;;28.20;28.40;;;;;;5000042;28;20029;-87
2022/03/05 12:38:18;;;;;;;11.90;8.85;;;28.30;27.80;;;;;;4995972;28;20608;-86
2022/03/05 12:40:43;;;;;;;12.23;9.05;;;28.20;27.60;;;;;;5002416;28;20029;-87
2022/03/05 12:43:09;;;;;;;11.03;8.57;;;28.20;28.20;;;;;;5015252;28;20274;-87
2022/03/05 12:45:38;;;;;;;12.07;9.02;;;28.20;28.20;;;;;;5006979;28;20334;-86
2022/03/05 12:48:10;;;;;;;11.88;9.15;;;28.30;27.60;;;;;;4973595;28;20033;-86
2022/03/05 12:50:38;;;;;;;11.33;8.60;;;28.30;26.80;;;;;;5000970;28;20060;-86
2022/03/05 12:53:07;;;;;;;11.60;8.90;;;28.30;27.20;;;;;;5015000;28;20037;-87